sensor_id;sensor_type;location;lat;lon;timestamp;temperature;humidity
7576;DHT22;3829;50.798;4.358;2023-03-11T00:01:58;1.00;99.90
7576;DHT22;3829;50.798;4.358;2023-03-11T00:04:23;1.00;99.90
7576;DHT22;3829;50.798;4.358;2023-03-11T00:06:49;1.00;99.90
7576;DHT22;3829;50.798;4.358;2023-03-11T00:09:15;1.00;99.90
7576;DHT22;3829;50.798;4.358;2023-03-11T00:11:40;0.90;99.90
7576;DHT22;3829;50.798;4.358;2023-03-11T00:14:06;0.90;99.90
7576;DHT22;3829;50.798;4.358;2023-03-11T00:16:31;0.90;99.90
7576;DHT22;3829;50.798;4.358;2023-03-11T00:18:57;0.90;99.90
7576;DHT22;3829;50.798;4.358;2023-03-11T00:21:22;0.90;99.90
7576;DHT22;3829;50.798;4.358;2023-03-11T00:23:48;0.80;99.90
7576;DHT22;3829;50.798;4.358;2023-03-11T00:26:14;0.80;99.90
7576;DHT22;3829;50.798;4.358;2023-03-11T00:28:39;0.90;99.90
7576;DHT22;3829;50.798;4.358;2023-03-11T00:31:05;0.90;99.90
7576;DHT22;3829;50.798;4.358;2023-03-11T00:33:30;0.80;99.90
7576;DHT22;3829;50.798;4.358;2023-03-11T00:35:56;0.90;99.90
7576;DHT22;3829;50.798;4.358;2023-03-11T00:38:22;0.90;99.90
7576;DHT22;3829;50.798;4.358;2023-03-11T00:40:48;0.90;99.90
7576;DHT22;3829;50.798;4.358;2023-03-11T00:43:14;1.00;99.90
7576;DHT22;3829;50.798;4.358;2023-03-11T00:45:40;1.00;99.90
7576;DHT22;3829;50.798;4.358;2023-03-11T00:48:06;1.00;99.90
7576;DHT22;3829;50.798;4.358;2023-03-11T00:50:34;0.90;99.90
7576;DHT22;3829;50.798;4.358;2023-03-11T00:53:01;0.90;99.90
7576;DHT22;3829;50.798;4.358;2023-03-11T00:55:29;0.90;99.90
7576;DHT22;3829;50.798;4.358;2023-03-11T00:57:57;0.90;99.90
7576;DHT22;3829;50.798;4.358;2023-03-11T01:00:26;0.80;99.90
7576;DHT22;3829;50.798;4.358;2023-03-11T01:02:53;0.80;99.90
7576;DHT22;3829;50.798;4.358;2023-03-11T01:05:22;0.80;99.90
7576;DHT22;3829;50.798;4.358;2023-03-11T01:07:48;0.70;99.90
7576;DHT22;3829;50.798;4.358;2023-03-11T01:10:14;0.70;99.90
7576;DHT22;3829;50.798;4.358;2023-03-11T01:12:40;0.80;99.90
7576;DHT22;3829;50.798;4.358;2023-03-11T01:15:07;0.70;99.90
7576;DHT22;3829;50.798;4.358;2023-03-11T01:17:33;0.70;99.90
7576;DHT22;3829;50.798;4.358;2023-03-11T01:19:58;0.60;99.90
7576;DHT22;3829;50.798;4.358;2023-03-11T01:22:24;0.60;99.90
7576;DHT22;3829;50.798;4.358;2023-03-11T01:24:49;0.60;99.90
7576;DHT22;3829;50.798;4.358;2023-03-11T01:27:15;0.70;99.90
7576;DHT22;3829;50.798;4.358;2023-03-11T01:29:41;0.60;99.90
7576;DHT22;3829;50.798;4.358;2023-03-11T01:32:06;0.60;99.90
7576;DHT22;3829;50.798;4.358;2023-03-11T01:34:32;0.60;99.90
7576;DHT22;3829;50.798;4.358;2023-03-11T01:37:01;0.60;99.90
7576;DHT22;3829;50.798;4.358;2023-03-11T01:39:27;0.70;99.90
7576;DHT22;3829;50.798;4.358;2023-03-11T01:41:52;0.70;99.90
7576;DHT22;3829;50.798;4.358;2023-03-11T01:44:20;0.70;99.90
7576;DHT22;3829;50.798;4.358;2023-03-11T01:49:21;0.90;99.90
7576;DHT22;3829;50.798;4.358;2023-03-11T01:51:49;1.00;99.90
7576;DHT22;3829;50.798;4.358;2023-03-11T01:54:35;1.00;99.90
7576;DHT22;3829;50.798;4.358;2023-03-11T01:57:05;1.00;99.90
7576;DHT22;3829;50.798;4.358;2023-03-11T01:59:33;0.90;99.90
7576;DHT22;3829;50.798;4.358;2023-03-11T02:02:10;1.00;99.90
7576;DHT22;3829;50.798;4.358;2023-03-11T02:04:36;1.00;99.90
7576;DHT22;3829;50.798;4.358;2023-03-11T02:07:03;1.10;99.90
7576;DHT22;3829;50.798;4.358;2023-03-11T02:09:31;1.10;99.90
7576;DHT22;3829;50.798;4.358;2023-03-11T02:11:57;1.10;99.90
7576;DHT22;3829;50.798;4.358;2023-03-11T02:14:23;1.10;99.90
7576;DHT22;3829;50.798;4.358;2023-03-11T02:16:49;1.10;99.90
7576;DHT22;3829;50.798;4.358;2023-03-11T02:19:23;1.20;99.90
7576;DHT22;3829;50.798;4.358;2023-03-11T02:21:51;1.10;99.90
7576;DHT22;3829;50.798;4.358;2023-03-11T02:24:41;1.20;99.90
7576;DHT22;3829;50.798;4.358;2023-03-11T02:27:11;1.20;99.90
7576;DHT22;3829;50.798;4.358;2023-03-11T02:29:37;1.10;99.90
7576;DHT22;3829;50.798;4.358;2023-03-11T02:32:08;1.10;99.90
7576;DHT22;3829;50.798;4.358;2023-03-11T02:34:36;1.00;99.90
7576;DHT22;3829;50.798;4.358;2023-03-11T02:37:07;1.00;99.90
7576;DHT22;3829;50.798;4.358;2023-03-11T02:39:34;1.00;99.90
7576;DHT22;3829;50.798;4.358;2023-03-11T02:42:11;1.00;99.90
7576;DHT22;3829;50.798;4.358;2023-03-11T02:44:39;1.10;99.90
7576;DHT22;3829;50.798;4.358;2023-03-11T02:47:06;1.10;99.90
7576;DHT22;3829;50.798;4.358;2023-03-11T02:49:32;1.10;99.90
7576;DHT22;3829;50.798;4.358;2023-03-11T02:51:58;1.10;99.90
7576;DHT22;3829;50.798;4.358;2023-03-11T02:54:24;1.10;99.90
7576;DHT22;3829;50.798;4.358;2023-03-11T02:56:50;1.10;99.90
7576;DHT22;3829;50.798;4.358;2023-03-11T02:59:15;1.10;99.90
7576;DHT22;3829;50.798;4.358;2023-03-11T03:01:43;1.00;99.90
7576;DHT22;3829;50.798;4.358;2023-03-11T03:04:08;1.10;99.90
7576;DHT22;3829;50.798;4.358;2023-03-11T03:06:34;1.20;99.90
7576;DHT22;3829;50.798;4.358;2023-03-11T03:08:59;1.20;99.90
7576;DHT22;3829;50.798;4.358;2023-03-11T03:11:25;1.30;99.90
7576;DHT22;3829;50.798;4.358;2023-03-11T03:13:51;1.30;99.90
7576;DHT22;3829;50.798;4.358;2023-03-11T03:16:16;1.40;99.90
7576;DHT22;3829;50.798;4.358;2023-03-11T03:18:42;1.30;99.90
7576;DHT22;3829;50.798;4.358;2023-03-11T03:21:07;1.40;99.90
7576;DHT22;3829;50.798;4.358;2023-03-11T03:23:33;1.40;99.90
7576;DHT22;3829;50.798;4.358;2023-03-11T03:26:00;1.30;99.90
7576;DHT22;3829;50.798;4.358;2023-03-11T03:28:26;1.20;99.90
7576;DHT22;3829;50.798;4.358;2023-03-11T03:30:52;1.20;99.90
7576;DHT22;3829;50.798;4.358;2023-03-11T03:33:18;1.20;99.90
7576;DHT22;3829;50.798;4.358;2023-03-11T03:35:44;1.30;99.90
7576;DHT22;3829;50.798;4.358;2023-03-11T03:38:10;1.30;99.90
7576;DHT22;3829;50.798;4.358;2023-03-11T03:40:36;1.40;99.90
7576;DHT22;3829;50.798;4.358;2023-03-11T03:43:02;1.40;99.90
7576;DHT22;3829;50.798;4.358;2023-03-11T03:45:28;1.50;99.90
7576;DHT22;3829;50.798;4.358;2023-03-11T03:47:53;1.50;99.90
7576;DHT22;3829;50.798;4.358;2023-03-11T03:50:19;1.40;99.90
7576;DHT22;3829;50.798;4.358;2023-03-11T03:52:44;1.40;99.90
7576;DHT22;3829;50.798;4.358;2023-03-11T03:55:10;1.30;99.90
7576;DHT22;3829;50.798;4.358;2023-03-11T03:57:36;1.30;99.90
7576;DHT22;3829;50.798;4.358;2023-03-11T04:00:02;1.30;99.90
7576;DHT22;3829;50.798;4.358;2023-03-11T04:02:29;1.40;99.90
7576;DHT22;3829;50.798;4.358;2023-03-11T04:04:55;1.40;99.90
7576;DHT22;3829;50.798;4.358;2023-03-11T04:07:21;1.40;99.90
7576;DHT22;3829;50.798;4.358;2023-03-11T04:09:47;1.40;99.90
7576;DHT22;3829;50.798;4.358;2023-03-11T04:12:13;1.30;99.90
7576;DHT22;3829;50.798;4.358;2023-03-11T04:14:40;1.20;99.90
7576;DHT22;3829;50.798;4.358;2023-03-11T04:17:07;1.20;99.90
7576;DHT22;3829;50.798;4.358;2023-03-11T04:19:32;1.10;99.90
7576;DHT22;3829;50.798;4.358;2023-03-11T04:21:58;1.00;99.90
7576;DHT22;3829;50.798;4.358;2023-03-11T04:24:24;0.90;99.90
7576;DHT22;3829;50.798;4.358;2023-03-11T04:26:49;0.80;99.90
7576;DHT22;3829;50.798;4.358;2023-03-11T04:29:15;0.80;99.90
7576;DHT22;3829;50.798;4.358;2023-03-11T04:31:40;0.70;99.90
7576;DHT22;3829;50.798;4.358;2023-03-11T04:34:06;0.60;99.90
7576;DHT22;3829;50.798;4.358;2023-03-11T04:36:32;0.50;99.90
7576;DHT22;3829;50.798;4.358;2023-03-11T04:38:57;0.50;99.90
7576;DHT22;3829;50.798;4.358;2023-03-11T04:41:23;0.50;99.90
7576;DHT22;3829;50.798;4.358;2023-03-11T04:43:49;0.60;99.90
7576;DHT22;3829;50.798;4.358;2023-03-11T04:46:14;0.60;99.90
7576;DHT22;3829;50.798;4.358;2023-03-11T04:48:40;0.60;99.90
7576;DHT22;3829;50.798;4.358;2023-03-11T04:51:06;0.50;99.90
7576;DHT22;3829;50.798;4.358;2023-03-11T04:53:32;0.50;99.90
7576;DHT22;3829;50.798;4.358;2023-03-11T04:55:58;0.50;99.90
7576;DHT22;3829;50.798;4.358;2023-03-11T04:58:23;0.60;99.90
7576;DHT22;3829;50.798;4.358;2023-03-11T05:00:50;0.50;99.90
7576;DHT22;3829;50.798;4.358;2023-03-11T05:03:16;0.50;99.90
7576;DHT22;3829;50.798;4.358;2023-03-11T05:05:44;0.50;99.90
7576;DHT22;3829;50.798;4.358;2023-03-11T05:08:09;0.50;99.90
7576;DHT22;3829;50.798;4.358;2023-03-11T05:10:35;0.40;99.90
7576;DHT22;3829;50.798;4.358;2023-03-11T05:13:01;0.40;99.90
7576;DHT22;3829;50.798;4.358;2023-03-11T05:15:27;0.30;99.90
7576;DHT22;3829;50.798;4.358;2023-03-11T05:17:55;0.20;99.90
7576;DHT22;3829;50.798;4.358;2023-03-11T05:20:21;0.30;99.90
7576;DHT22;3829;50.798;4.358;2023-03-11T05:22:46;0.40;99.90
7576;DHT22;3829;50.798;4.358;2023-03-11T05:25:12;0.40;99.90
7576;DHT22;3829;50.798;4.358;2023-03-11T05:27:37;0.40;99.90
7576;DHT22;3829;50.798;4.358;2023-03-11T05:30:03;0.40;99.90
7576;DHT22;3829;50.798;4.358;2023-03-11T05:32:29;0.40;99.90
7576;DHT22;3829;50.798;4.358;2023-03-11T05:34:55;0.40;99.90
7576;DHT22;3829;50.798;4.358;2023-03-11T05:37:20;0.30;99.90
7576;DHT22;3829;50.798;4.358;2023-03-11T05:39:46;0.30;99.90
7576;DHT22;3829;50.798;4.358;2023-03-11T05:42:11;0.30;99.90
7576;DHT22;3829;50.798;4.358;2023-03-11T05:44:37;0.30;99.90
7576;DHT22;3829;50.798;4.358;2023-03-11T05:47:03;0.40;99.90
7576;DHT22;3829;50.798;4.358;2023-03-11T05:49:28;0.30;99.90
7576;DHT22;3829;50.798;4.358;2023-03-11T05:51:54;0.40;99.90
7576;DHT22;3829;50.798;4.358;2023-03-11T05:54:20;0.40;99.90
7576;DHT22;3829;50.798;4.358;2023-03-11T05:56:46;0.30;99.90
7576;DHT22;3829;50.798;4.358;2023-03-11T05:59:13;0.30;99.90
7576;DHT22;3829;50.798;4.358;2023-03-11T06:01:39;0.40;99.90
7576;DHT22;3829;50.798;4.358;2023-03-11T06:04:05;0.40;99.90
7576;DHT22;3829;50.798;4.358;2023-03-11T06:06:31;0.40;99.90
7576;DHT22;3829;50.798;4.358;2023-03-11T06:08:57;0.40;99.90
7576;DHT22;3829;50.798;4.358;2023-03-11T06:11:22;0.40;99.90
7576;DHT22;3829;50.798;4.358;2023-03-11T06:13:55;0.40;99.90
7576;DHT22;3829;50.798;4.358;2023-03-11T06:16:22;0.40;99.90
7576;DHT22;3829;50.798;4.358;2023-03-11T06:18:48;0.40;99.90
7576;DHT22;3829;50.798;4.358;2023-03-11T06:21:16;0.40;99.90
7576;DHT22;3829;50.798;4.358;2023-03-11T06:23:42;0.50;99.90
7576;DHT22;3829;50.798;4.358;2023-03-11T06:26:09;0.60;99.90
7576;DHT22;3829;50.798;4.358;2023-03-11T06:28:37;0.60;99.90
7576;DHT22;3829;50.798;4.358;2023-03-11T06:31:11;0.60;99.90
7576;DHT22;3829;50.798;4.358;2023-03-11T06:33:38;0.60;99.90
7576;DHT22;3829;50.798;4.358;2023-03-11T06:36:05;0.60;99.90
7576;DHT22;3829;50.798;4.358;2023-03-11T06:38:31;0.70;99.90
7576;DHT22;3829;50.798;4.358;2023-03-11T06:41:01;0.70;99.90
7576;DHT22;3829;50.798;4.358;2023-03-11T06:43:28;0.70;99.90
7576;DHT22;3829;50.798;4.358;2023-03-11T06:45:55;0.70;99.90
7576;DHT22;3829;50.798;4.358;2023-03-11T06:48:21;0.70;99.90
7576;DHT22;3829;50.798;4.358;2023-03-11T06:50:57;0.70;99.90
7576;DHT22;3829;50.798;4.358;2023-03-11T06:53:23;0.80;99.90
7576;DHT22;3829;50.798;4.358;2023-03-11T06:56:04;0.80;99.90
7576;DHT22;3829;50.798;4.358;2023-03-11T06:58:30;0.90;99.90
7576;DHT22;3829;50.798;4.358;2023-03-11T07:01:07;1.00;99.90
7576;DHT22;3829;50.798;4.358;2023-03-11T07:03:33;1.00;99.90
7576;DHT22;3829;50.798;4.358;2023-03-11T07:05:59;1.00;99.90
7576;DHT22;3829;50.798;4.358;2023-03-11T07:08:25;1.00;99.90
7576;DHT22;3829;50.798;4.358;2023-03-11T07:11:06;1.10;99.90
7576;DHT22;3829;50.798;4.358;2023-03-11T07:13:32;1.20;99.90
7576;DHT22;3829;50.798;4.358;2023-03-11T07:16:06;1.40;99.90
7576;DHT22;3829;50.798;4.358;2023-03-11T07:18:33;1.50;99.90
7576;DHT22;3829;50.798;4.358;2023-03-11T07:21:01;1.60;99.90
7576;DHT22;3829;50.798;4.358;2023-03-11T07:23:27;1.70;99.90
7576;DHT22;3829;50.798;4.358;2023-03-11T07:25:52;1.80;99.90
7576;DHT22;3829;50.798;4.358;2023-03-11T07:28:20;1.90;99.90
7576;DHT22;3829;50.798;4.358;2023-03-11T07:30:46;1.90;99.90
7576;DHT22;3829;50.798;4.358;2023-03-11T07:33:13;2.00;99.90
7576;DHT22;3829;50.798;4.358;2023-03-11T07:35:38;2.00;99.90
7576;DHT22;3829;50.798;4.358;2023-03-11T07:38:04;2.00;99.90
7576;DHT22;3829;50.798;4.358;2023-03-11T07:40:30;2.10;99.90
7576;DHT22;3829;50.798;4.358;2023-03-11T07:42:55;2.10;99.90
7576;DHT22;3829;50.798;4.358;2023-03-11T07:45:22;2.10;99.90
7576;DHT22;3829;50.798;4.358;2023-03-11T07:47:47;2.20;99.90
7576;DHT22;3829;50.798;4.358;2023-03-11T07:50:13;2.30;99.90
7576;DHT22;3829;50.798;4.358;2023-03-11T07:52:39;2.30;99.90
7576;DHT22;3829;50.798;4.358;2023-03-11T07:55:04;2.30;99.90
7576;DHT22;3829;50.798;4.358;2023-03-11T07:57:30;2.40;99.90
7576;DHT22;3829;50.798;4.358;2023-03-11T07:59:56;2.40;99.90
7576;DHT22;3829;50.798;4.358;2023-03-11T08:02:21;2.40;99.90
7576;DHT22;3829;50.798;4.358;2023-03-11T08:04:47;2.50;99.90
7576;DHT22;3829;50.798;4.358;2023-03-11T08:07:12;2.60;99.90
7576;DHT22;3829;50.798;4.358;2023-03-11T08:09:38;2.70;99.90
7576;DHT22;3829;50.798;4.358;2023-03-11T08:12:03;2.80;99.90
7576;DHT22;3829;50.798;4.358;2023-03-11T08:14:29;3.00;99.90
7576;DHT22;3829;50.798;4.358;2023-03-11T08:16:55;3.10;99.90
7576;DHT22;3829;50.798;4.358;2023-03-11T08:19:20;3.10;99.90
7576;DHT22;3829;50.798;4.358;2023-03-11T08:21:46;3.20;99.90
7576;DHT22;3829;50.798;4.358;2023-03-11T08:24:12;3.30;99.90
7576;DHT22;3829;50.798;4.358;2023-03-11T08:26:39;3.30;99.90
7576;DHT22;3829;50.798;4.358;2023-03-11T08:29:05;3.30;99.90
7576;DHT22;3829;50.798;4.358;2023-03-11T08:31:32;3.40;99.90
7576;DHT22;3829;50.798;4.358;2023-03-11T08:34:06;3.40;99.90
7576;DHT22;3829;50.798;4.358;2023-03-11T08:36:32;3.50;99.90
7576;DHT22;3829;50.798;4.358;2023-03-11T08:38:57;3.60;99.90
7576;DHT22;3829;50.798;4.358;2023-03-11T08:41:23;3.60;99.90
7576;DHT22;3829;50.798;4.358;2023-03-11T08:43:49;3.70;99.90
7576;DHT22;3829;50.798;4.358;2023-03-11T08:46:27;3.90;99.90
7576;DHT22;3829;50.798;4.358;2023-03-11T08:48:53;4.00;99.90
7576;DHT22;3829;50.798;4.358;2023-03-11T08:51:20;4.10;99.90
7576;DHT22;3829;50.798;4.358;2023-03-11T08:53:46;4.20;99.90
7576;DHT22;3829;50.798;4.358;2023-03-11T08:56:12;4.30;99.90
7576;DHT22;3829;50.798;4.358;2023-03-11T08:58:37;4.40;99.90
7576;DHT22;3829;50.798;4.358;2023-03-11T09:01:04;4.50;99.90
7576;DHT22;3829;50.798;4.358;2023-03-11T09:03:32;4.70;99.90
7576;DHT22;3829;50.798;4.358;2023-03-11T09:06:04;4.70;99.90
7576;DHT22;3829;50.798;4.358;2023-03-11T09:08:30;4.70;99.90
7576;DHT22;3829;50.798;4.358;2023-03-11T09:10:56;4.60;99.90
7576;DHT22;3829;50.798;4.358;2023-03-11T09:13:21;4.70;99.90
7576;DHT22;3829;50.798;4.358;2023-03-11T09:15:48;4.90;99.90
7576;DHT22;3829;50.798;4.358;2023-03-11T09:18:15;5.00;99.90
7576;DHT22;3829;50.798;4.358;2023-03-11T09:20:41;5.10;99.90
7576;DHT22;3829;50.798;4.358;2023-03-11T09:23:08;5.00;99.90
7576;DHT22;3829;50.798;4.358;2023-03-11T09:25:34;4.90;99.90
7576;DHT22;3829;50.798;4.358;2023-03-11T09:27:59;4.90;99.90
7576;DHT22;3829;50.798;4.358;2023-03-11T09:30:25;5.10;99.90
7576;DHT22;3829;50.798;4.358;2023-03-11T09:32:50;5.10;99.90
7576;DHT22;3829;50.798;4.358;2023-03-11T09:35:16;5.30;99.90
7576;DHT22;3829;50.798;4.358;2023-03-11T09:37:42;5.40;99.90
7576;DHT22;3829;50.798;4.358;2023-03-11T09:40:10;5.50;99.90
7576;DHT22;3829;50.798;4.358;2023-03-11T09:45:27;5.40;99.90
7576;DHT22;3829;50.798;4.358;2023-03-11T09:50:52;5.50;99.90
7576;DHT22;3829;50.798;4.358;2023-03-11T09:56:06;6.10;99.90
7576;DHT22;3829;50.798;4.358;2023-03-11T09:58:48;6.30;99.90
7576;DHT22;3829;50.798;4.358;2023-03-11T10:01:31;6.00;99.90
7576;DHT22;3829;50.798;4.358;2023-03-11T10:06:47;6.10;99.90
7576;DHT22;3829;50.798;4.358;2023-03-11T10:11:42;6.30;99.90
7576;DHT22;3829;50.798;4.358;2023-03-11T10:14:27;6.20;99.90
7576;DHT22;3829;50.798;4.358;2023-03-11T10:17:21;6.30;99.90
7576;DHT22;3829;50.798;4.358;2023-03-11T10:22:29;6.60;99.90
7576;DHT22;3829;50.798;4.358;2023-03-11T10:25:04;6.90;99.90
7576;DHT22;3829;50.798;4.358;2023-03-11T10:27:39;7.20;99.90
7576;DHT22;3829;50.798;4.358;2023-03-11T10:30:22;7.60;99.90
7576;DHT22;3829;50.798;4.358;2023-03-11T10:32:54;8.30;99.90
7576;DHT22;3829;50.798;4.358;2023-03-11T10:35:23;8.50;99.90
7576;DHT22;3829;50.798;4.358;2023-03-11T10:38:02;8.80;99.90
7576;DHT22;3829;50.798;4.358;2023-03-11T10:40:34;8.90;99.90
7576;DHT22;3829;50.798;4.358;2023-03-11T10:43:04;8.20;99.90
7576;DHT22;3829;50.798;4.358;2023-03-11T10:45:37;8.00;99.90
7576;DHT22;3829;50.798;4.358;2023-03-11T10:48:08;8.10;99.90
7576;DHT22;3829;50.798;4.358;2023-03-11T10:50:34;8.20;99.90
7576;DHT22;3829;50.798;4.358;2023-03-11T10:53:17;8.60;99.90
7576;DHT22;3829;50.798;4.358;2023-03-11T10:55:49;8.30;99.90
7576;DHT22;3829;50.798;4.358;2023-03-11T10:58:25;8.50;99.90
7576;DHT22;3829;50.798;4.358;2023-03-11T11:01:13;8.70;99.90
7576;DHT22;3829;50.798;4.358;2023-03-11T11:03:41;9.00;99.90
7576;DHT22;3829;50.798;4.358;2023-03-11T11:06:20;9.40;99.90
7576;DHT22;3829;50.798;4.358;2023-03-11T11:08:46;9.60;99.90
7576;DHT22;3829;50.798;4.358;2023-03-11T11:11:20;9.70;99.90
7576;DHT22;3829;50.798;4.358;2023-03-11T11:13:56;9.50;99.90
7576;DHT22;3829;50.798;4.358;2023-03-11T11:16:22;9.40;99.90
7576;DHT22;3829;50.798;4.358;2023-03-11T11:18:51;9.20;99.90
7576;DHT22;3829;50.798;4.358;2023-03-11T11:21:33;8.90;99.90
7576;DHT22;3829;50.798;4.358;2023-03-11T11:29:29;8.70;99.90
7576;DHT22;3829;50.798;4.358;2023-03-11T11:32:23;9.00;99.90
7576;DHT22;3829;50.798;4.358;2023-03-11T11:34:55;9.30;99.90
7576;DHT22;3829;50.798;4.358;2023-03-11T11:37:21;9.00;99.90
7576;DHT22;3829;50.798;4.358;2023-03-11T11:39:57;8.90;99.90
7576;DHT22;3829;50.798;4.358;2023-03-11T11:42:24;9.20;99.90
7576;DHT22;3829;50.798;4.358;2023-03-11T11:45:01;9.20;99.90
7576;DHT22;3829;50.798;4.358;2023-03-11T11:47:32;9.20;99.90
7576;DHT22;3829;50.798;4.358;2023-03-11T11:50:02;9.40;99.90
7576;DHT22;3829;50.798;4.358;2023-03-11T11:52:38;9.50;99.90
7576;DHT22;3829;50.798;4.358;2023-03-11T11:55:27;9.40;99.90
7576;DHT22;3829;50.798;4.358;2023-03-11T11:57:53;9.60;99.90
7576;DHT22;3829;50.798;4.358;2023-03-11T12:00:21;9.20;99.90
7576;DHT22;3829;50.798;4.358;2023-03-11T12:08:57;9.30;99.90
7576;DHT22;3829;50.798;4.358;2023-03-11T12:14:25;9.30;99.90
7576;DHT22;3829;50.798;4.358;2023-03-11T12:16:59;9.00;99.90
7576;DHT22;3829;50.798;4.358;2023-03-11T12:19:48;8.70;99.90
7576;DHT22;3829;50.798;4.358;2023-03-11T12:22:35;8.80;99.90
7576;DHT22;3829;50.798;4.358;2023-03-11T12:25:23;8.60;99.90
7576;DHT22;3829;50.798;4.358;2023-03-11T12:28:04;8.60;99.90
7576;DHT22;3829;50.798;4.358;2023-03-11T12:30:40;8.60;99.90
7576;DHT22;3829;50.798;4.358;2023-03-11T12:33:17;8.50;99.90
7576;DHT22;3829;50.798;4.358;2023-03-11T12:35:53;8.50;99.90
7576;DHT22;3829;50.798;4.358;2023-03-11T12:38:27;8.60;99.90
7576;DHT22;3829;50.798;4.358;2023-03-11T12:46:02;8.60;99.90
7576;DHT22;3829;50.798;4.358;2023-03-11T12:50:55;8.70;99.90
7576;DHT22;3829;50.798;4.358;2023-03-11T12:53:47;8.60;99.90
7576;DHT22;3829;50.798;4.358;2023-03-11T13:01:56;8.70;99.90
7576;DHT22;3829;50.798;4.358;2023-03-11T13:09:44;9.00;99.90
7576;DHT22;3829;50.798;4.358;2023-03-11T13:12:44;9.00;99.90
7576;DHT22;3829;50.798;4.358;2023-03-11T13:23:27;8.80;99.90
7576;DHT22;3829;50.798;4.358;2023-03-11T13:26:14;8.70;99.90
7576;DHT22;3829;50.798;4.358;2023-03-11T13:28:56;8.90;99.90
7576;DHT22;3829;50.798;4.358;2023-03-11T13:31:36;8.90;99.90
7576;DHT22;3829;50.798;4.358;2023-03-11T13:36:45;8.90;99.90
7576;DHT22;3829;50.798;4.358;2023-03-11T13:41:48;8.70;99.90
7576;DHT22;3829;50.798;4.358;2023-03-11T13:44:29;8.80;99.90
7576;DHT22;3829;50.798;4.358;2023-03-11T13:47:03;9.00;99.90
7576;DHT22;3829;50.798;4.358;2023-03-11T13:55:17;9.10;99.90
7576;DHT22;3829;50.798;4.358;2023-03-11T13:58:24;8.90;99.90
7576;DHT22;3829;50.798;4.358;2023-03-11T14:00:55;8.80;99.90
7576;DHT22;3829;50.798;4.358;2023-03-11T14:03:23;8.70;99.90
7576;DHT22;3829;50.798;4.358;2023-03-11T14:06:01;8.50;99.90
7576;DHT22;3829;50.798;4.358;2023-03-11T14:08:32;8.50;99.90
7576;DHT22;3829;50.798;4.358;2023-03-11T14:13:45;7.90;99.90
7576;DHT22;3829;50.798;4.358;2023-03-11T14:16:29;8.10;99.90
7576;DHT22;3829;50.798;4.358;2023-03-11T14:19:12;8.20;99.90
7576;DHT22;3829;50.798;4.358;2023-03-11T14:21:47;8.30;99.90
7576;DHT22;3829;50.798;4.358;2023-03-11T14:24:38;8.40;99.90
7576;DHT22;3829;50.798;4.358;2023-03-11T14:27:08;8.50;99.90
7576;DHT22;3829;50.798;4.358;2023-03-11T14:29:38;8.80;99.90
7576;DHT22;3829;50.798;4.358;2023-03-11T14:34:50;10.50;99.90
7576;DHT22;3829;50.798;4.358;2023-03-11T14:37:32;10.90;99.90
7576;DHT22;3829;50.798;4.358;2023-03-11T14:39:58;11.10;99.90
7576;DHT22;3829;50.798;4.358;2023-03-11T14:42:41;10.60;99.90
7576;DHT22;3829;50.798;4.358;2023-03-11T14:45:14;10.90;99.90
7576;DHT22;3829;50.798;4.358;2023-03-11T14:50:17;11.60;99.90
7576;DHT22;3829;50.798;4.358;2023-03-11T14:52:57;11.30;99.90
7576;DHT22;3829;50.798;4.358;2023-03-11T14:55:28;11.50;99.90
7576;DHT22;3829;50.798;4.358;2023-03-11T14:58:04;12.00;99.90
7576;DHT22;3829;50.798;4.358;2023-03-11T15:00:37;12.30;99.90
7576;DHT22;3829;50.798;4.358;2023-03-11T15:05:51;11.50;99.90
7576;DHT22;3829;50.798;4.358;2023-03-11T15:08:20;12.40;99.90
7576;DHT22;3829;50.798;4.358;2023-03-11T15:11:20;12.20;99.90
7576;DHT22;3829;50.798;4.358;2023-03-11T15:13:47;12.60;99.90
7576;DHT22;3829;50.798;4.358;2023-03-11T15:16:27;12.40;99.90
7576;DHT22;3829;50.798;4.358;2023-03-11T15:18:53;13.00;99.90
7576;DHT22;3829;50.798;4.358;2023-03-11T15:21:21;13.50;99.90
7576;DHT22;3829;50.798;4.358;2023-03-11T15:23:53;13.70;99.90
7576;DHT22;3829;50.798;4.358;2023-03-11T15:26:24;15.30;99.90
7576;DHT22;3829;50.798;4.358;2023-03-11T15:29:02;16.20;99.90
7576;DHT22;3829;50.798;4.358;2023-03-11T15:31:34;15.70;98.50
7576;DHT22;3829;50.798;4.358;2023-03-11T15:34:19;15.40;98.80
7576;DHT22;3829;50.798;4.358;2023-03-11T15:39:19;14.40;99.00
7576;DHT22;3829;50.798;4.358;2023-03-11T15:41:56;15.20;99.30
7576;DHT22;3829;50.798;4.358;2023-03-11T15:47:16;13.70;98.10
7576;DHT22;3829;50.798;4.358;2023-03-11T15:49:42;12.80;99.00
7576;DHT22;3829;50.798;4.358;2023-03-11T15:52:08;11.70;99.80
7576;DHT22;3829;50.798;4.358;2023-03-11T15:54:34;11.00;99.90
7576;DHT22;3829;50.798;4.358;2023-03-11T15:57:00;10.50;99.90
7576;DHT22;3829;50.798;4.358;2023-03-11T15:59:29;10.10;99.90
7576;DHT22;3829;50.798;4.358;2023-03-11T16:01:54;9.70;99.90
7576;DHT22;3829;50.798;4.358;2023-03-11T16:04:21;9.50;99.90
7576;DHT22;3829;50.798;4.358;2023-03-11T16:06:47;9.20;99.90
7576;DHT22;3829;50.798;4.358;2023-03-11T16:09:14;8.90;99.90
7576;DHT22;3829;50.798;4.358;2023-03-11T16:11:41;8.90;99.90
7576;DHT22;3829;50.798;4.358;2023-03-11T16:14:15;8.70;99.90
7576;DHT22;3829;50.798;4.358;2023-03-11T16:16:42;8.80;99.90
7576;DHT22;3829;50.798;4.358;2023-03-11T16:19:07;8.90;99.90
7576;DHT22;3829;50.798;4.358;2023-03-11T16:21:37;9.00;99.90
7576;DHT22;3829;50.798;4.358;2023-03-11T16:24:04;9.10;99.90
7576;DHT22;3829;50.798;4.358;2023-03-11T16:26:30;9.10;99.90
7576;DHT22;3829;50.798;4.358;2023-03-11T16:28:56;9.00;99.90
7576;DHT22;3829;50.798;4.358;2023-03-11T16:31:22;9.00;99.90
7576;DHT22;3829;50.798;4.358;2023-03-11T16:33:48;8.80;99.90
7576;DHT22;3829;50.798;4.358;2023-03-11T16:36:14;8.80;99.90
7576;DHT22;3829;50.798;4.358;2023-03-11T16:38:49;8.80;99.90
7576;DHT22;3829;50.798;4.358;2023-03-11T16:41:15;8.70;99.90
7576;DHT22;3829;50.798;4.358;2023-03-11T16:43:41;8.60;99.90
7576;DHT22;3829;50.798;4.358;2023-03-11T16:46:07;8.60;99.90
7576;DHT22;3829;50.798;4.358;2023-03-11T16:48:33;8.60;99.90
7576;DHT22;3829;50.798;4.358;2023-03-11T16:50:59;8.50;99.90
7576;DHT22;3829;50.798;4.358;2023-03-11T16:53:25;8.40;99.90
7576;DHT22;3829;50.798;4.358;2023-03-11T16:55:51;8.30;99.90
7576;DHT22;3829;50.798;4.358;2023-03-11T16:58:16;8.40;99.90
7576;DHT22;3829;50.798;4.358;2023-03-11T17:00:42;8.40;99.90
7576;DHT22;3829;50.798;4.358;2023-03-11T17:03:12;8.40;99.90
7576;DHT22;3829;50.798;4.358;2023-03-11T17:05:38;8.30;99.90
7576;DHT22;3829;50.798;4.358;2023-03-11T17:08:04;8.30;99.90
7576;DHT22;3829;50.798;4.358;2023-03-11T17:10:35;8.20;99.90
7576;DHT22;3829;50.798;4.358;2023-03-11T17:13:03;8.00;99.90
7576;DHT22;3829;50.798;4.358;2023-03-11T17:15:29;7.80;99.90
7576;DHT22;3829;50.798;4.358;2023-03-11T17:17:54;7.80;99.90
7576;DHT22;3829;50.798;4.358;2023-03-11T17:20:20;7.70;99.90
7576;DHT22;3829;50.798;4.358;2023-03-11T17:22:45;7.70;99.90
7576;DHT22;3829;50.798;4.358;2023-03-11T17:25:11;7.70;99.90
7576;DHT22;3829;50.798;4.358;2023-03-11T17:27:37;7.60;99.90
7576;DHT22;3829;50.798;4.358;2023-03-11T17:30:04;7.50;99.90
7576;DHT22;3829;50.798;4.358;2023-03-11T17:32:30;7.40;99.90
7576;DHT22;3829;50.798;4.358;2023-03-11T17:34:56;7.40;99.90
7576;DHT22;3829;50.798;4.358;2023-03-11T17:37:22;7.40;99.90
7576;DHT22;3829;50.798;4.358;2023-03-11T17:39:47;7.30;99.90
7576;DHT22;3829;50.798;4.358;2023-03-11T17:42:13;7.30;99.90
7576;DHT22;3829;50.798;4.358;2023-03-11T17:44:39;7.20;99.90
7576;DHT22;3829;50.798;4.358;2023-03-11T17:47:05;7.00;99.90
7576;DHT22;3829;50.798;4.358;2023-03-11T17:49:30;6.90;99.90
7576;DHT22;3829;50.798;4.358;2023-03-11T17:51:56;6.80;99.90
7576;DHT22;3829;50.798;4.358;2023-03-11T17:54:21;6.80;99.90
7576;DHT22;3829;50.798;4.358;2023-03-11T17:56:47;6.80;99.90